createdAt,value
2018-07-25T00:04:12.734Z,60.40
2018-07-25T00:09:14.914Z,59.80
2018-07-25T00:14:17.077Z,58.80
2018-07-25T00:19:19.237Z,58.80
2018-07-25T00:24:21.370Z,59.30
2018-07-25T00:29:23.497Z,59.30
2018-07-25T00:34:25.638Z,59.90
2018-07-25T00:39:27.789Z,59.90
2018-07-25T00:44:29.905Z,59.90
2018-07-25T00:49:32.024Z,59.60
2018-07-25T00:54:34.153Z,59.90
2018-07-25T00:59:36.278Z,59.60
2018-07-25T01:04:38.400Z,61.00
2018-07-25T01:09:40.578Z,61.10
2018-07-25T01:14:42.753Z,61.00
2018-07-25T01:19:44.921Z,61.60
2018-07-25T01:24:47.049Z,62.40
2018-07-25T01:29:49.174Z,64.90
2018-07-25T01:34:51.709Z,68.30
2018-07-25T01:39:53.859Z,65.70
2018-07-25T01:44:56.002Z,64.80
2018-07-25T01:49:58.156Z,64.30
2018-07-25T01:55:00.309Z,64.80
2018-07-25T02:00:02.474Z,64.30
2018-07-25T02:05:05.216Z,64.20
2018-07-25T02:10:07.349Z,65.90
2018-07-25T02:15:09.478Z,66.90
2018-07-25T02:20:11.629Z,69.80
2018-07-25T02:25:13.786Z,68.70
2018-07-25T02:30:15.948Z,68.00
2018-07-25T02:35:18.075Z,68.30
2018-07-25T02:40:20.240Z,70.00
2018-07-25T02:45:22.393Z,73.40
2018-07-25T02:50:24.553Z,75.80
2018-07-25T02:55:26.670Z,77.30
2018-07-25T03:00:28.794Z,81.00
2018-07-25T03:05:30.938Z,84.30
2018-07-25T03:10:33.057Z,84.90
2018-07-25T03:15:36.027Z,84.70
2018-07-25T03:20:38.174Z,87.20
2018-07-25T03:25:40.330Z,88.30
2018-07-25T03:30:42.496Z,87.50
2018-07-25T03:35:44.670Z,89.60
2018-07-25T03:40:47.369Z,89.10
2018-07-25T03:45:49.530Z,90.80
2018-07-25T03:50:51.681Z,91.30
2018-07-25T03:55:53.866Z,92.20
2018-07-25T04:00:56.014Z,93.60
2018-07-25T04:05:58.169Z,94.30
2018-07-25T04:11:00.330Z,93.40
2018-07-25T04:16:02.489Z,90.40
2018-07-25T04:21:04.642Z,88.40
2018-07-25T04:26:06.853Z,87.50
2018-07-25T04:31:08.997Z,86.80
2018-07-25T04:36:11.132Z,86.60
2018-07-25T04:41:13.321Z,90.40
2018-07-25T04:46:15.540Z,89.90
2018-07-25T04:51:17.616Z,89.10
2018-07-25T04:56:19.757Z,87.80
2018-07-25T05:01:21.907Z,84.70
2018-07-25T05:06:24.043Z,83.50
2018-07-25T05:11:26.193Z,81.00
2018-07-25T05:16:28.356Z,76.90
2018-07-25T05:21:30.527Z,76.00
2018-07-25T05:26:32.674Z,74.30
2018-07-25T05:31:34.847Z,70.70
2018-07-25T05:36:37.029Z,69.30
2018-07-25T05:41:39.805Z,69.90
2018-07-25T05:46:41.967Z,68.80
2018-07-25T05:51:44.154Z,68.60
2018-07-25T05:56:46.314Z,65.00
2018-07-25T06:01:48.478Z,62.80
2018-07-25T06:06:50.673Z,60.30
2018-07-25T06:11:52.833Z,60.70
2018-07-25T06:16:55.011Z,58.70
2018-07-25T06:21:57.197Z,57.90
2018-07-25T06:26:59.357Z,58.00
2018-07-25T06:32:01.521Z,57.10
2018-07-25T06:37:03.707Z,55.00
2018-07-25T06:42:05.909Z,52.10
2018-07-25T06:47:08.053Z,52.10
2018-07-25T06:52:10.217Z,51.30
2018-07-25T06:57:12.380Z,52.20
2018-07-25T07:02:14.571Z,49.30
2018-07-25T07:07:16.741Z,49.30
2018-07-25T07:12:18.901Z,47.00
2018-07-25T07:17:21.103Z,47.50
2018-07-25T07:22:23.237Z,47.20
2018-07-25T07:27:25.390Z,44.90
2018-07-25T07:32:27.553Z,47.20
2018-07-25T07:37:29.785Z,47.50
2018-07-25T07:42:31.888Z,46.20
2018-07-25T07:47:34.079Z,46.10
2018-07-25T07:52:36.266Z,45.20
2018-07-25T07:57:38.440Z,43.10
2018-07-25T08:02:40.621Z,41.30
2018-07-25T08:07:42.799Z,41.60
2018-07-25T08:12:44.989Z,40.40
2018-07-25T08:17:47.257Z,41.00
2018-07-25T08:22:49.334Z,37.60
2018-07-25T08:27:51.483Z,38.80
2018-07-25T08:32:53.666Z,37.40
2018-07-25T08:37:55.843Z,35.10
2018-07-25T08:42:57.977Z,35.60
2018-07-25T08:48:00.136Z,35.10
2018-07-25T08:53:02.290Z,36.10
2018-07-25T08:58:04.468Z,36.60
2018-07-25T09:03:06.638Z,36.00
2018-07-25T09:08:09.161Z,33.90
2018-07-25T09:13:11.395Z,34.40
2018-07-25T09:18:13.473Z,34.80
2018-07-25T09:23:15.610Z,33.40
2018-07-25T09:28:17.741Z,33.90
2018-07-25T09:33:19.942Z,34.50
2018-07-25T09:38:22.126Z,34.20
2018-07-25T09:43:24.357Z,33.10
2018-07-25T09:48:26.561Z,33.70
2018-07-25T09:53:28.765Z,32.80
2018-07-25T09:58:30.897Z,30.80
2018-07-25T10:03:33.049Z,30.60
2018-07-25T10:08:35.191Z,28.90
2018-07-25T10:13:37.357Z,29.70
2018-07-25T10:18:39.506Z,27.90
2018-07-25T10:23:41.794Z,29.20
2018-07-25T10:28:43.944Z,28.20
2018-07-25T10:33:46.087Z,28.90
2018-07-25T10:38:48.262Z,28.60
2018-07-25T10:43:50.427Z,30.60
2018-07-25T10:48:52.684Z,31.00
2018-07-25T10:53:54.835Z,31.80
2018-07-25T10:58:57.011Z,33.00
2018-07-25T11:03:59.182Z,32.30
2018-07-25T11:09:01.378Z,31.90
2018-07-25T11:14:03.555Z,33.20
2018-07-25T11:19:05.715Z,33.00
2018-07-25T11:24:07.878Z,32.80
2018-07-25T11:29:10.016Z,31.50
2018-07-25T11:34:12.197Z,30.90
2018-07-25T11:39:14.350Z,31.80
2018-07-25T11:44:16.487Z,30.60
2018-07-25T11:49:18.675Z,30.60
2018-07-25T11:54:20.838Z,28.90
2018-07-25T11:59:22.977Z,27.60
2018-07-25T12:04:25.134Z,28.00
2018-07-25T12:09:27.288Z,27.30
2018-07-25T12:14:29.477Z,26.20
2018-07-25T12:19:31.637Z,26.40
2018-07-25T12:24:33.826Z,26.80
2018-07-25T12:29:35.993Z,26.10
2018-07-25T12:34:38.151Z,25.30
2018-07-25T12:39:40.333Z,25.00
2018-07-25T12:44:42.546Z,25.80
2018-07-25T12:49:44.709Z,25.10
2018-07-25T12:54:46.869Z,25.20
2018-07-25T12:59:49.038Z,24.40
2018-07-25T13:04:51.213Z,24.90
2018-07-25T13:09:53.394Z,25.60
2018-07-25T13:14:55.594Z,26.80
2018-07-25T13:19:57.738Z,26.60
2018-07-25T13:24:59.913Z,25.30
2018-07-25T13:30:02.114Z,26.30
2018-07-25T13:35:04.341Z,26.00
2018-07-25T13:40:06.614Z,28.40
2018-07-25T13:45:08.798Z,26.70
2018-07-25T13:50:10.999Z,26.10
2018-07-25T13:55:13.165Z,25.90
2018-07-25T14:00:15.366Z,26.30
2018-07-25T14:05:17.573Z,25.60
2018-07-25T14:10:19.731Z,26.50
2018-07-25T14:15:22.385Z,27.00
2018-07-25T14:20:24.548Z,27.40
2018-07-25T14:25:26.734Z,26.10
2018-07-25T14:30:29.036Z,25.00
2018-07-25T14:35:31.051Z,24.60
2018-07-25T14:40:33.227Z,24.10
2018-07-25T14:45:35.343Z,24.40
2018-07-25T14:50:37.473Z,24.30
2018-07-25T14:55:39.640Z,24.10
2018-07-25T15:00:41.789Z,24.40
2018-07-25T15:05:43.933Z,22.90
2018-07-25T15:10:46.094Z,23.30
2018-07-25T15:15:48.269Z,23.30
2018-07-25T15:20:50.405Z,24.30
2018-07-25T15:25:52.573Z,23.30
2018-07-25T15:30:54.749Z,23.80
2018-07-25T15:35:56.925Z,23.80
2018-07-25T15:40:59.093Z,24.30
2018-07-25T15:46:01.264Z,23.00
2018-07-25T15:51:03.450Z,23.70
2018-07-25T15:56:05.711Z,23.80
2018-07-25T16:01:07.982Z,23.60
2018-07-25T16:06:10.139Z,23.20
2018-07-25T16:11:12.593Z,23.70
2018-07-25T16:16:14.805Z,22.90
2018-07-25T16:21:17.367Z,22.90
2018-07-25T16:26:19.553Z,23.70
2018-07-25T16:31:21.758Z,25.70
2018-07-25T16:36:23.942Z,26.10
2018-07-25T16:41:26.142Z,24.90
2018-07-25T16:46:28.338Z,25.90
2018-07-25T16:51:30.513Z,25.30
2018-07-25T16:56:32.751Z,25.80
2018-07-25T17:01:34.826Z,25.80
2018-07-25T17:06:36.989Z,25.60
2018-07-25T17:11:39.270Z,26.10
2018-07-25T17:16:41.448Z,26.10
2018-07-25T17:21:43.613Z,26.10
2018-07-25T17:26:45.762Z,26.10
2018-07-25T17:31:47.930Z,26.30
2018-07-25T17:36:50.073Z,26.20
2018-07-25T17:41:52.217Z,26.90
2018-07-25T17:46:54.364Z,27.90
2018-07-25T17:51:56.701Z,29.00
2018-07-25T17:56:58.928Z,30.20
2018-07-25T18:02:01.036Z,31.20
2018-07-25T18:07:03.197Z,31.00
2018-07-25T18:12:05.357Z,30.00
2018-07-25T18:17:07.555Z,30.20
2018-07-25T18:22:09.682Z,30.80
2018-07-25T18:27:11.805Z,31.10
2018-07-25T18:32:13.982Z,31.20
2018-07-25T18:37:16.128Z,31.60
2018-07-25T18:42:18.313Z,32.10
2018-07-25T18:47:20.495Z,32.60
2018-07-25T18:52:22.677Z,33.30
2018-07-25T18:57:24.853Z,33.60
2018-07-25T19:02:27.006Z,34.10
2018-07-25T19:07:29.262Z,34.30
2018-07-25T19:12:31.326Z,34.50
2018-07-25T19:17:33.473Z,35.50
2018-07-25T19:22:35.669Z,35.70
2018-07-25T19:27:37.830Z,35.70
2018-07-25T19:32:39.988Z,36.10
2018-07-25T19:37:42.281Z,36.10
2018-07-25T19:42:44.442Z,36.80
2018-07-25T19:47:46.597Z,37.70
2018-07-25T19:52:48.764Z,37.70
2018-07-25T19:57:50.941Z,38.40
2018-07-25T20:02:53.223Z,38.40
2018-07-25T20:07:55.382Z,38.60
2018-07-25T20:12:57.602Z,38.90
2018-07-25T20:17:59.815Z,39.20
2018-07-25T20:23:01.940Z,39.80
2018-07-25T20:28:04.330Z,39.80
2018-07-25T20:33:06.461Z,39.20
2018-07-25T20:38:08.643Z,39.20
2018-07-25T20:43:10.783Z,39.50
2018-07-25T20:48:12.918Z,37.10
2018-07-25T20:53:15.053Z,35.00
2018-07-25T20:58:17.216Z,34.60
2018-07-25T21:03:19.367Z,34.60
2018-07-25T21:08:22.296Z,35.10
2018-07-25T21:13:24.442Z,35.00
2018-07-25T21:18:26.582Z,35.80
2018-07-25T21:23:28.794Z,35.80
2018-07-25T21:28:30.913Z,35.90
2018-07-25T21:33:33.060Z,36.80
2018-07-25T21:38:35.193Z,37.30
2018-07-25T21:43:37.337Z,38.00
2018-07-25T21:48:39.469Z,39.10
2018-07-25T21:53:41.617Z,39.10
2018-07-25T21:58:43.744Z,39.60
2018-07-25T22:03:46.088Z,40.20
2018-07-25T22:08:48.248Z,40.70
2018-07-25T22:13:54.947Z,41.20
2018-07-25T22:18:57.077Z,41.70
2018-07-25T22:23:59.233Z,42.10
2018-07-25T22:29:01.414Z,42.10
2018-07-25T22:34:03.564Z,42.50
2018-07-25T22:39:07.461Z,43.70
2018-07-25T22:44:10.457Z,43.70
2018-07-25T22:49:12.597Z,44.10
2018-07-25T22:54:14.741Z,44.50
2018-07-25T22:59:16.882Z,44.70
2018-07-25T23:04:19.086Z,45.00
2018-07-25T23:09:21.228Z,45.20
2018-07-25T23:14:23.396Z,45.40
2018-07-25T23:19:25.721Z,45.60
2018-07-25T23:24:27.875Z,45.60
2018-07-25T23:29:30.073Z,45.80
2018-07-25T23:34:32.168Z,46.00
2018-07-25T23:39:34.297Z,46.90
2018-07-25T23:44:36.429Z,46.00
2018-07-25T23:49:38.562Z,46.20
2018-07-25T23:54:40.705Z,46.50
2018-07-25T23:59:42.834Z,46.70
